createdAt,value
2022-09-05T00:02:03.170Z,17.00
2022-09-05T00:05:03.815Z,17.27
2022-09-05T00:07:58.979Z,17.24
2022-09-05T00:10:36.151Z,17.22
2022-09-05T00:14:07.118Z,17.24
2022-09-05T00:17:06.992Z,17.15
2022-09-05T00:24:21.958Z,17.27
2022-09-05T00:24:29.932Z,17.15
2022-09-05T00:25:57.561Z,17.35
2022-09-05T00:28:52.370Z,17.36
2022-09-05T00:31:53.644Z,17.04
2022-09-05T00:34:14.636Z,17.30
2022-09-05T00:36:55.820Z,17.29
2022-09-05T00:39:29.917Z,17.17
2022-09-05T00:42:00.329Z,17.19
2022-09-05T00:44:32.873Z,17.06
2022-09-05T00:47:33.644Z,17.05
2022-09-05T00:50:06.728Z,16.71
2022-09-05T00:52:37.239Z,17.26
2022-09-05T00:55:37.339Z,17.10
2022-09-05T00:58:27.941Z,17.16
2022-09-05T01:01:19.768Z,16.88
2022-09-05T01:04:04.948Z,16.66
2022-09-05T01:07:03.898Z,17.14
2022-09-05T01:09:51.730Z,17.01
2022-09-05T01:12:57.692Z,17.07
2022-09-05T01:15:40.965Z,17.08
2022-09-05T01:18:16.007Z,17.09
2022-09-05T01:20:54.949Z,16.93
2022-09-05T01:23:43.711Z,16.95
2022-09-05T01:26:25.628Z,16.90
2022-09-05T01:29:16.715Z,16.86
2022-09-05T01:31:47.867Z,16.94
2022-09-05T01:34:31.239Z,16.90
2022-09-05T01:37:24.963Z,16.89
2022-09-05T01:40:30.014Z,16.86
2022-09-05T01:43:02.831Z,16.77
2022-09-05T01:45:47.685Z,16.72
2022-09-05T01:48:52.543Z,16.77
2022-09-05T01:51:31.371Z,16.70
2022-09-05T01:54:29.873Z,16.83
2022-09-05T01:57:27.718Z,16.61
2022-09-05T01:59:57.423Z,16.79
2022-09-05T02:02:34.483Z,16.95
2022-09-05T02:05:47.846Z,17.05
2022-09-05T02:08:15.809Z,16.86
2022-09-05T02:11:08.578Z,16.92
2022-09-05T02:13:35.190Z,16.72
2022-09-05T02:16:11.103Z,16.92
2022-09-05T02:18:37.783Z,16.84
2022-09-05T02:21:11.906Z,16.92
2022-09-05T02:23:49.276Z,16.77
2022-09-05T02:26:58.303Z,16.80
2022-09-05T02:29:28.526Z,16.91
2022-09-05T02:32:22.863Z,16.76
2022-09-05T02:35:07.858Z,16.83
2022-09-05T02:40:41.368Z,16.84
2022-09-05T02:45:14.922Z,16.81
2022-09-05T02:45:20.767Z,16.81
2022-09-05T02:46:55.910Z,16.83
2022-09-05T02:50:58.255Z,16.82
2022-09-05T02:57:25.428Z,16.63
2022-09-05T02:57:46.253Z,16.83
2022-09-05T02:58:18.062Z,16.88
2022-09-05T03:00:52.226Z,16.92
2022-09-05T03:03:35.636Z,17.01
2022-09-05T03:06:35.762Z,16.94
2022-09-05T03:09:59.711Z,16.95
2022-09-05T03:12:50.701Z,17.00
2022-09-05T03:15:54.591Z,16.97
2022-09-05T03:18:24.258Z,17.03
2022-09-05T03:21:35.246Z,17.01
2022-09-05T03:24:34.288Z,16.95
2022-09-05T03:27:36.576Z,16.93
2022-09-05T03:30:08.630Z,16.92
2022-09-05T03:32:49.276Z,16.77
2022-09-05T03:35:34.751Z,17.01
2022-09-05T03:38:20.293Z,16.97
2022-09-05T03:41:02.493Z,16.99
2022-09-05T03:43:50.667Z,16.92
2022-09-05T03:46:38.853Z,16.79
2022-09-05T03:51:41.749Z,17.03
2022-09-05T03:57:15.326Z,16.91
2022-09-05T03:57:20.865Z,16.78
2022-09-05T03:59:15.791Z,16.85
2022-09-05T04:07:40.122Z,16.89
2022-09-05T04:08:16.081Z,16.61
2022-09-05T04:08:27.807Z,16.58
2022-09-05T04:10:31.826Z,16.86
2022-09-05T04:13:19.998Z,16.87
2022-09-05T04:15:54.712Z,16.91
2022-09-05T04:18:54.256Z,17.08
2022-09-05T04:21:29.545Z,16.71
2022-09-05T04:24:13.139Z,16.96
2022-09-05T04:27:17.335Z,17.03
2022-09-05T04:30:38.467Z,16.88
2022-09-05T04:33:32.119Z,16.94
2022-09-05T04:36:24.004Z,16.77
2022-09-05T04:39:24.797Z,16.95
2022-09-05T04:42:17.924Z,17.01
2022-09-05T04:45:07.415Z,16.94
2022-09-05T04:47:44.290Z,17.07
2022-09-05T04:50:18.701Z,16.92
2022-09-05T04:53:04.500Z,16.98
2022-09-05T04:56:09.588Z,16.89
2022-09-05T05:00:13.048Z,16.81
2022-09-05T05:06:11.540Z,16.95
2022-09-05T05:06:14.275Z,16.87
2022-09-05T05:07:57.905Z,17.13
2022-09-05T05:13:28.274Z,17.17
2022-09-05T05:18:03.135Z,16.89
2022-09-05T05:18:07.790Z,17.15
2022-09-05T05:20:39.294Z,16.78
2022-09-05T05:22:52.231Z,17.13
2022-09-05T05:25:19.088Z,17.13
2022-09-05T05:28:24.553Z,17.18
2022-09-05T05:30:55.369Z,16.88
2022-09-05T05:33:37.259Z,17.16
2022-09-05T05:36:11.951Z,16.99
2022-09-05T05:38:54.371Z,17.07
2022-09-05T05:41:40.438Z,17.12
2022-09-05T05:44:19.714Z,17.07
2022-09-05T05:46:59.270Z,17.10
2022-09-05T05:49:44.650Z,16.88
2022-09-05T05:52:26.583Z,17.23
2022-09-05T05:55:50.783Z,17.13
2022-09-05T05:58:38.235Z,17.11
2022-09-05T06:01:36.901Z,17.04
2022-09-05T06:04:23.542Z,17.09
2022-09-05T06:06:53.244Z,17.13
2022-09-05T06:14:47.904Z,17.20
2022-09-05T06:14:55.254Z,17.19
2022-09-05T06:15:58.239Z,17.18
2022-09-05T06:18:48.211Z,17.48
2022-09-05T06:22:10.456Z,17.50
2022-09-05T06:24:58.786Z,17.51
2022-09-05T06:28:18.751Z,17.52
2022-09-05T06:31:30.799Z,17.15
2022-09-05T06:34:59.766Z,17.38
2022-09-05T06:37:55.615Z,17.39
2022-09-05T06:40:32.184Z,17.07
2022-09-05T06:43:05.254Z,17.40
2022-09-05T06:46:03.195Z,17.19
2022-09-05T06:48:45.695Z,17.21
2022-09-05T06:52:24.983Z,17.49
2022-09-05T06:55:19.688Z,17.61
2022-09-05T06:58:07.801Z,17.61
2022-09-05T07:00:35.136Z,17.58
2022-09-05T07:03:32.493Z,17.42
2022-09-05T07:06:08.299Z,17.72
2022-09-05T07:09:03.451Z,18.09
2022-09-05T07:12:08.935Z,17.69
2022-09-05T07:14:41.507Z,17.62
2022-09-05T07:17:24.837Z,17.73
2022-09-05T07:19:59.732Z,17.45
2022-09-05T07:22:47.058Z,17.91
2022-09-05T07:25:26.370Z,17.57
2022-09-05T07:28:29.968Z,17.68
2022-09-05T07:31:07.077Z,17.94
2022-09-05T07:33:37.344Z,17.97
2022-09-05T07:36:10.027Z,17.81
2022-09-05T07:38:52.129Z,18.01
2022-09-05T07:41:29.651Z,17.78
2022-09-05T07:44:06.080Z,17.90
2022-09-05T07:46:36.540Z,17.95
2022-09-05T07:49:05.165Z,17.88
2022-09-05T07:56:50.385Z,18.12
2022-09-05T07:57:02.366Z,18.55
2022-09-05T07:57:32.401Z,18.46
2022-09-05T08:00:26.938Z,18.55
2022-09-05T08:03:08.123Z,18.54
2022-09-05T08:05:40.969Z,17.71
2022-09-05T08:08:14.227Z,17.90
2022-09-05T08:11:24.254Z,18.16
2022-09-05T08:13:46.289Z,17.97
2022-09-05T08:16:19.323Z,17.80
2022-09-05T08:18:56.159Z,17.58
2022-09-05T08:21:54.717Z,18.07
2022-09-05T08:24:36.762Z,17.91
2022-09-05T08:27:18.972Z,17.78
2022-09-05T08:30:08.011Z,18.08
2022-09-05T08:33:10.102Z,18.08
2022-09-05T08:36:16.108Z,17.83
2022-09-05T08:38:45.290Z,17.99
2022-09-05T08:41:51.137Z,17.87
2022-09-05T08:46:36.347Z,18.09
2022-09-05T08:47:45.237Z,17.86
2022-09-05T08:50:31.634Z,18.25
2022-09-05T08:53:26.285Z,18.26
2022-09-05T08:56:17.014Z,17.99
2022-09-05T08:59:27.769Z,18.23
2022-09-05T09:02:47.185Z,18.52
2022-09-05T09:05:20.644Z,18.14
2022-09-05T09:07:56.736Z,18.60
2022-09-05T09:10:49.208Z,18.57
2022-09-05T09:13:31.055Z,18.70
2022-09-05T09:16:04.890Z,18.33
2022-09-05T09:18:51.985Z,18.63
2022-09-05T09:21:25.386Z,18.51
2022-09-05T09:24:07.655Z,18.44
2022-09-05T09:26:57.453Z,18.17
2022-09-05T09:29:25.662Z,17.90
2022-09-05T09:31:52.471Z,18.16
2022-09-05T09:34:32.941Z,17.97
2022-09-05T09:37:49.619Z,18.11
2022-09-05T09:41:00.874Z,17.92
2022-09-05T09:44:01.623Z,18.19
2022-09-05T09:46:45.601Z,18.49
2022-09-05T09:49:37.243Z,18.43
2022-09-05T09:52:20.620Z,18.47
2022-09-05T09:55:23.654Z,18.54
2022-09-05T09:57:59.780Z,18.63
2022-09-05T10:00:38.205Z,18.73
2022-09-05T10:07:11.971Z,18.83
2022-09-05T10:10:44.273Z,18.74
2022-09-05T10:10:46.170Z,18.73
2022-09-05T10:13:17.449Z,18.82
2022-09-05T10:16:24.177Z,18.91
2022-09-05T10:22:44.818Z,18.91
2022-09-05T10:25:50.371Z,19.02
2022-09-05T10:28:27.400Z,19.02
2022-09-05T10:33:18.334Z,19.15
2022-09-05T10:35:06.080Z,19.15
2022-09-05T10:37:12.083Z,19.41
2022-09-05T10:39:43.992Z,18.86
2022-09-05T10:42:15.768Z,18.75
2022-09-05T10:44:53.833Z,18.89
2022-09-05T10:47:41.684Z,19.15
2022-09-05T10:50:47.409Z,18.93
2022-09-05T10:53:44.499Z,18.87
2022-09-05T10:56:26.040Z,18.89
2022-09-05T11:01:12.737Z,19.03
2022-09-05T11:02:29.728Z,19.24
2022-09-05T11:05:17.445Z,19.20
2022-09-05T11:08:02.067Z,19.28
2022-09-05T11:10:28.771Z,19.16
2022-09-05T11:13:11.172Z,19.43
2022-09-05T11:15:57.286Z,19.01
2022-09-05T11:18:57.292Z,19.29
2022-09-05T11:21:40.369Z,19.04
2022-09-05T11:24:33.466Z,19.02
2022-09-05T11:27:25.225Z,19.16
2022-09-05T11:30:30.211Z,19.05
2022-09-05T11:39:51.092Z,18.62
2022-09-05T11:39:56.166Z,18.86
2022-09-05T11:39:59.504Z,18.77
2022-09-05T11:42:17.901Z,18.80
2022-09-05T11:45:22.356Z,18.85
2022-09-05T11:48:07.124Z,18.57
2022-09-05T11:50:57.423Z,18.49
2022-09-05T11:53:27.017Z,18.70
2022-09-05T11:56:12.684Z,18.56
2022-09-05T11:58:57.534Z,18.55
2022-09-05T12:02:16.989Z,18.60
2022-09-05T12:05:50.631Z,18.78
2022-09-05T12:08:00.344Z,18.59
2022-09-05T12:10:52.154Z,18.88
2022-09-05T12:13:42.681Z,18.86
2022-09-05T12:16:32.653Z,18.87
2022-09-05T12:19:19.400Z,19.05
2022-09-05T12:22:28.395Z,19.06
2022-09-05T12:25:25.733Z,19.08
2022-09-05T12:27:59.941Z,18.86
2022-09-05T12:30:46.326Z,18.96
2022-09-05T12:35:48.596Z,19.05
2022-09-05T12:40:21.514Z,18.99
2022-09-05T12:41:38.116Z,18.99
2022-09-05T12:43:33.464Z,19.04
2022-09-05T12:45:59.358Z,18.96
2022-09-05T12:48:41.003Z,18.85
2022-09-05T12:51:46.295Z,18.76
2022-09-05T12:54:34.745Z,18.85
2022-09-05T13:01:19.059Z,19.31
2022-09-05T13:03:02.983Z,19.33
2022-09-05T13:03:28.550Z,19.14
2022-09-05T13:05:59.427Z,19.90
2022-09-05T13:08:40.137Z,19.43
2022-09-05T13:14:48.321Z,19.72
2022-09-05T13:15:01.159Z,19.55
2022-09-05T13:17:02.465Z,19.44
2022-09-05T13:19:32.360Z,19.20
2022-09-05T13:22:02.503Z,19.51
2022-09-05T13:24:35.991Z,19.39
2022-09-05T13:27:07.340Z,19.86
2022-09-05T13:32:46.957Z,19.95
2022-09-05T13:38:00.927Z,19.97
2022-09-05T13:38:12.568Z,19.33
2022-09-05T13:38:48.885Z,19.62
2022-09-05T13:41:28.308Z,19.35
2022-09-05T13:44:00.585Z,19.50
2022-09-05T13:46:59.249Z,19.98
2022-09-05T13:50:20.094Z,19.73
2022-09-05T13:52:56.665Z,19.95
2022-09-05T13:55:28.625Z,20.02
2022-09-05T13:58:33.477Z,19.95
2022-09-05T14:01:57.106Z,20.24
2022-09-05T14:07:48.540Z,20.33
2022-09-05T14:10:40.218Z,20.28
2022-09-05T14:13:08.487Z,20.43
2022-09-05T14:15:38.949Z,20.30
2022-09-05T14:18:19.887Z,20.11
2022-09-05T14:21:17.987Z,20.12
2022-09-05T14:23:57.875Z,19.60
2022-09-05T14:26:42.722Z,20.25
2022-09-05T14:29:29.008Z,20.34
2022-09-05T14:37:40.537Z,20.64
2022-09-05T14:37:49.610Z,20.73
2022-09-05T14:38:14.789Z,20.66
2022-09-05T14:41:20.331Z,20.84
2022-09-05T14:43:59.168Z,20.97
2022-09-05T14:46:54.235Z,20.17
2022-09-05T14:49:54.595Z,20.63
2022-09-05T14:52:28.420Z,20.53
2022-09-05T15:02:40.716Z,20.65
2022-09-05T15:02:54.608Z,20.27
2022-09-05T15:12:38.653Z,20.02
2022-09-05T15:15:25.760Z,19.80
2022-09-05T15:17:58.592Z,19.75
2022-09-05T15:20:41.670Z,20.04
2022-09-05T15:23:16.666Z,20.10
2022-09-05T15:26:07.207Z,19.61
2022-09-05T15:28:37.205Z,19.87
2022-09-05T15:31:12.899Z,19.50
2022-09-05T15:33:41.105Z,19.05
2022-09-05T15:36:13.570Z,19.42
2022-09-05T15:38:55.156Z,19.81
2022-09-05T15:41:26.735Z,19.92
2022-09-05T15:44:14.940Z,19.74
2022-09-05T15:46:49.349Z,19.57
2022-09-05T15:49:48.332Z,19.59
2022-09-05T15:52:17.979Z,19.65
2022-09-05T15:54:56.487Z,19.58
2022-09-05T15:57:34.697Z,19.50
2022-09-05T16:00:05.308Z,19.23
2022-09-05T16:02:36.991Z,19.60
2022-09-05T16:09:59.825Z,19.68
2022-09-05T16:10:41.150Z,19.64
2022-09-05T16:11:31.638Z,19.53
2022-09-05T16:14:26.271Z,18.97
2022-09-05T16:23:16.096Z,19.42
2022-09-05T16:23:34.072Z,19.53
2022-09-05T16:23:39.574Z,19.33
2022-09-05T16:26:25.138Z,19.31
2022-09-05T16:29:27.085Z,19.14
2022-09-05T16:32:00.025Z,19.02
2022-09-05T16:34:32.774Z,19.38
2022-09-05T16:37:09.305Z,19.06
2022-09-05T16:39:42.481Z,19.00
2022-09-05T16:42:19.663Z,19.00
2022-09-05T16:45:20.443Z,19.14
2022-09-05T16:47:47.109Z,19.20
2022-09-05T16:50:39.479Z,18.99
2022-09-05T16:53:35.016Z,18.98
2022-09-05T16:56:09.980Z,18.91
2022-09-05T16:58:43.784Z,18.92
2022-09-05T17:01:34.207Z,18.88
2022-09-05T17:04:41.665Z,19.16
2022-09-05T17:07:42.470Z,19.15
2022-09-05T17:10:18.158Z,18.97
2022-09-05T17:12:44.940Z,19.12
2022-09-05T17:15:16.277Z,19.26
2022-09-05T17:18:20.741Z,19.25
2022-09-05T17:20:37.156Z,19.29
2022-09-05T17:29:19.963Z,19.00
2022-09-05T17:29:20.566Z,19.31
2022-09-05T17:29:29.498Z,19.08
2022-09-05T17:32:00.556Z,19.16
2022-09-05T17:34:39.487Z,18.85
2022-09-05T17:37:11.773Z,19.12
2022-09-05T17:39:58.212Z,18.92
2022-09-05T17:42:54.733Z,18.70
2022-09-05T17:45:45.134Z,19.06
2022-09-05T17:48:16.796Z,19.02
2022-09-05T17:50:54.226Z,18.82
2022-09-05T17:53:26.627Z,18.88
2022-09-05T17:55:55.322Z,18.83
2022-09-05T17:58:34.684Z,18.43
2022-09-05T18:01:26.651Z,18.74
2022-09-05T18:03:55.685Z,18.73
2022-09-05T18:06:59.422Z,18.42
2022-09-05T18:09:40.095Z,18.65
2022-09-05T18:13:12.450Z,18.51
2022-09-05T18:15:18.558Z,18.42
2022-09-05T18:17:46.999Z,18.67
2022-09-05T18:20:33.392Z,18.62
2022-09-05T18:26:03.148Z,18.37
2022-09-05T18:31:41.045Z,18.07
2022-09-05T18:34:21.432Z,18.45
2022-09-05T18:36:58.108Z,18.16
2022-09-05T18:39:28.101Z,18.20
2022-09-05T18:42:26.601Z,17.97
2022-09-05T18:44:59.547Z,17.90
2022-09-05T18:47:51.239Z,18.02
2022-09-05T18:50:32.268Z,18.18
2022-09-05T18:53:10.122Z,18.17
2022-09-05T18:56:11.570Z,18.11
2022-09-05T18:59:09.602Z,18.24
2022-09-05T19:01:42.400Z,18.21
2022-09-05T19:04:40.501Z,18.23
2022-09-05T19:07:12.366Z,18.17
2022-09-05T19:09:57.130Z,18.03
2022-09-05T19:12:33.240Z,17.94
2022-09-05T19:15:18.244Z,18.01
2022-09-05T19:18:26.332Z,18.19
2022-09-05T19:21:05.115Z,18.24
2022-09-05T19:23:50.350Z,18.16
2022-09-05T19:26:24.187Z,18.00
2022-09-05T19:36:50.137Z,18.07
2022-09-05T19:36:54.642Z,18.24
2022-09-05T19:37:08.029Z,18.03
2022-09-05T19:37:48.082Z,17.95
2022-09-05T19:47:25.217Z,18.02
2022-09-05T19:47:36.961Z,18.15
2022-09-05T19:47:39.634Z,17.89
2022-09-05T19:49:12.598Z,17.77
2022-09-05T19:51:41.791Z,17.65
2022-09-05T19:54:31.702Z,17.97
2022-09-05T19:57:03.881Z,17.86
2022-09-05T19:59:39.474Z,17.80
2022-09-05T20:02:24.766Z,17.78
2022-09-05T20:04:55.352Z,17.80
2022-09-05T20:07:24.651Z,17.71
2022-09-05T20:09:53.307Z,17.76
2022-09-05T20:12:33.514Z,17.97
2022-09-05T20:15:35.943Z,17.87
2022-09-05T20:18:22.898Z,17.95
2022-09-05T20:21:14.880Z,17.85
2022-09-05T20:23:45.742Z,17.82
2022-09-05T20:26:12.837Z,17.91
2022-09-05T20:28:42.214Z,17.98
2022-09-05T20:31:20.051Z,17.94
2022-09-05T20:33:52.420Z,17.87
2022-09-05T20:43:09.378Z,18.00
2022-09-05T20:43:31.024Z,17.93
2022-09-05T20:43:31.115Z,18.03
2022-09-05T20:45:48.425Z,18.24
2022-09-05T20:54:04.298Z,18.05
2022-09-05T20:54:21.349Z,18.02
2022-09-05T20:54:32.023Z,18.16
2022-09-05T20:57:00.357Z,18.09
2022-09-05T20:59:38.563Z,18.17
2022-09-05T21:02:08.541Z,17.89
2022-09-05T21:04:38.891Z,17.98
2022-09-05T21:07:10.889Z,18.16
2022-09-05T21:10:00.287Z,18.23
2022-09-05T21:12:36.113Z,18.08
2022-09-05T21:15:52.085Z,18.10
2022-09-05T21:18:31.409Z,18.00
2022-09-05T21:21:10.330Z,17.90
2022-09-05T21:24:18.254Z,18.06
2022-09-05T21:26:48.115Z,18.21
2022-09-05T21:29:17.741Z,18.13
2022-09-05T21:31:54.553Z,18.03
2022-09-05T21:34:33.646Z,17.84
2022-09-05T21:37:07.942Z,18.13
2022-09-05T21:39:42.909Z,18.31
2022-09-05T21:46:07.298Z,18.11
2022-09-05T21:47:38.173Z,18.14
2022-09-05T21:48:06.594Z,18.23
2022-09-05T21:50:49.729Z,18.25
2022-09-05T21:56:17.651Z,18.20
2022-09-05T21:59:19.093Z,18.25
2022-09-05T21:59:27.218Z,18.00
2022-09-05T22:01:53.337Z,18.01
2022-09-05T22:04:22.342Z,18.09
2022-09-05T22:06:50.095Z,17.88
2022-09-05T22:09:18.406Z,18.07
2022-09-05T22:11:50.417Z,18.07
2022-09-05T22:14:18.949Z,17.96
2022-09-05T22:16:47.647Z,18.13
2022-09-05T22:19:23.046Z,18.10
2022-09-05T22:21:57.639Z,18.25
2022-09-05T22:24:27.925Z,17.94
2022-09-05T22:27:12.374Z,17.91
2022-09-05T22:29:40.244Z,17.94
2022-09-05T22:32:07.447Z,18.10
2022-09-05T22:34:34.147Z,18.00
2022-09-05T22:37:00.840Z,18.06
2022-09-05T22:39:36.917Z,18.00
2022-09-05T22:42:07.754Z,17.94
2022-09-05T22:44:37.666Z,18.12
2022-09-05T22:47:05.747Z,18.38
2022-09-05T22:49:32.643Z,18.30
2022-09-05T22:51:59.359Z,18.05
2022-09-05T22:54:26.198Z,18.25
2022-09-05T22:56:52.907Z,18.21
2022-09-05T22:59:19.603Z,18.18
2022-09-05T23:01:46.453Z,18.36
2022-09-05T23:04:13.290Z,18.20
2022-09-05T23:06:40.015Z,18.16
2022-09-05T23:09:06.788Z,18.02
2022-09-05T23:11:33.700Z,18.07
2022-09-05T23:14:00.439Z,18.00
2022-09-05T23:16:27.328Z,18.05
2022-09-05T23:18:53.987Z,18.11
2022-09-05T23:21:20.991Z,18.31
2022-09-05T23:23:47.714Z,18.11
2022-09-05T23:26:16.072Z,18.28
2022-09-05T23:28:43.686Z,18.36
2022-09-05T23:31:11.736Z,18.29
2022-09-05T23:33:41.595Z,18.20
2022-09-05T23:36:11.107Z,18.12
2022-09-05T23:38:37.945Z,18.23
2022-09-05T23:41:08.263Z,18.30
2022-09-05T23:43:35.434Z,18.10
2022-09-05T23:46:03.354Z,18.14
2022-09-05T23:48:30.747Z,18.20
2022-09-05T23:50:57.538Z,18.02
2022-09-05T23:53:24.420Z,17.89
2022-09-05T23:55:51.219Z,18.07
2022-09-05T23:58:18.256Z,18.12
